Terminal Aerodrome Forecast
Issued by NWS

Home | Current Version | Previous Version | Text Only | Print | Product List | Glossary On
Versions: 1 2 3 4 5 6 7 8 9 10 11 12 13 14 15 16 17 18 19 20 21 22 23
000
FTUS43 KDLH 252300
TAFHYR
TAF
KHYR 252336Z 2600/2624 14003KT P6SM SCT050
     FM260200 16003KT P6SM BKN050
      TEMPO 2605/2607 BKN022 OVC050
     FM260700 17004KT 6SM -SN OVC020
     FM261000 18004KT 3SM -SN OVC015
     FM261200 18006KT 1SM -SN BR OVC010
     FM261600 18005KT 6SM -SN OVC015=

USA.gov is the U.S. government's official web portal to all federal, state and local government web resources and services.